Time;durP1;ratioP1;P1;durP2;ratioP2;P2;SDS_P1;SDS_P2;PMS_P1;PMS_P2;Temp;Humidity;BMP_temperature;BMP_pressure;BME280_temperature;BME280_humidity;BME280_pressure;Samples;Min_cycle;Max_cycle;Signal;HPM_P1;HPM_P2
2021/06/20 00:01:47;;;;;;;0.22;0.00;;;19.70;72.40;;;;;;5052757;28;20045;-86
2021/06/20 00:04:14;;;;;;;0.00;0.00;;;19.70;72.40;;;;;;5050510;28;20037;-86
2021/06/20 00:06:45;;;;;;;0.00;0.00;;;19.70;72.50;;;;;;5052600;28;20036;-86
2021/06/20 00:09:12;;;;;;;0.00;0.00;;;19.70;72.50;;;;;;5051477;28;20390;-88
2021/06/20 00:11:39;;;;;;;1.00;0.10;;;19.70;72.50;;;;;;5051499;28;20373;-86
2021/06/20 00:14:05;;;;;;;0.00;0.00;;;19.70;72.50;;;;;;5034894;28;20355;-87
2021/06/20 00:16:32;;;;;;;0.20;0.10;;;19.60;72.50;;;;;;5046630;28;20052;-86
2021/06/20 00:18:58;;;;;;;0.80;0.13;;;19.60;72.50;;;;;;5048034;28;20037;-86
2021/06/20 00:21:24;;;;;;;0.43;0.00;;;19.60;72.50;;;;;;5030281;28;20038;-86
2021/06/20 00:23:50;;;;;;;1.00;0.68;;;19.60;72.50;;;;;;5049045;28;20036;-86
2021/06/20 00:26:17;;;;;;;0.25;0.03;;;19.60;72.50;;;;;;5050313;28;20373;-86
2021/06/20 00:28:43;;;;;;;0.15;0.10;;;19.60;72.50;;;;;;5047938;28;20033;-86
2021/06/20 00:31:09;;;;;;;0.00;0.00;;;19.60;72.60;;;;;;5047436;28;20040;-85
2021/06/20 00:33:35;;;;;;;0.10;0.00;;;19.50;72.60;;;;;;5030170;28;20021;-86
2021/06/20 00:36:02;;;;;;;0.00;0.00;;;19.50;72.60;;;;;;5047432;28;20033;-87
2021/06/20 00:38:28;;;;;;;0.03;0.00;;;19.50;72.60;;;;;;5050459;28;20044;-86
2021/06/20 00:40:54;;;;;;;0.00;0.00;;;19.50;72.60;;;;;;5031879;28;20053;-86
2021/06/20 00:43:21;;;;;;;0.00;0.00;;;19.50;72.70;;;;;;5050666;28;20029;-86
2021/06/20 00:45:47;;;;;;;0.50;0.10;;;19.50;72.70;;;;;;5033656;28;20044;-86
2021/06/20 00:48:13;;;;;;;0.40;0.10;;;19.50;72.80;;;;;;5049874;28;20041;-85
2021/06/20 00:50:39;;;;;;;0.25;0.00;;;19.50;72.80;;;;;;5051643;28;20492;-87
2021/06/20 00:53:05;;;;;;;0.00;0.00;;;19.40;72.70;;;;;;5052272;28;20028;-86
2021/06/20 00:55:33;;;;;;;0.00;0.00;;;19.40;72.70;;;;;;5050880;28;20052;-85
2021/06/20 00:58:00;;;;;;;0.20;0.00;;;19.40;72.70;;;;;;5051539;28;20379;-86
2021/06/20 01:00:26;;;;;;;2.50;0.20;;;19.40;72.80;;;;;;5033767;28;20388;-86
2021/06/20 01:02:52;;;;;;;0.10;0.10;;;19.50;72.80;;;;;;5049685;28;20398;-87
2021/06/20 01:05:19;;;;;;;0.17;0.00;;;19.40;72.80;;;;;;5051913;28;20033;-86
2021/06/20 01:07:45;;;;;;;0.13;0.03;;;19.40;72.80;;;;;;5052333;28;20033;-86
2021/06/20 01:10:12;;;;;;;0.10;0.00;;;19.40;72.90;;;;;;5033723;28;20072;-86
2021/06/20 01:12:38;;;;;;;0.22;0.00;;;19.40;72.80;;;;;;5051231;28;20056;-85
2021/06/20 01:15:10;;;;;;;0.10;0.00;;;19.40;72.80;;;;;;5033614;28;20036;-86
2021/06/20 01:17:37;;;;;;;0.25;0.10;;;19.40;72.90;;;;;;5036035;28;20033;-86
2021/06/20 01:20:06;;;;;;;0.43;0.00;;;19.40;72.90;;;;;;5047039;28;20033;-86
2021/06/20 01:22:33;;;;;;;0.60;0.10;;;19.40;72.90;;;;;;5047485;28;20037;-86
2021/06/20 01:25:12;;;;;;;0.35;0.00;;;19.40;73.00;;;;;;5047295;28;20489;-86
2021/06/20 01:27:47;;;;;;;0.00;0.00;;;19.30;73.00;;;;;;5045860;28;20033;-86
2021/06/20 01:30:16;;;;;;;0.57;0.08;;;19.30;73.00;;;;;;5033505;28;20493;-86
2021/06/20 01:32:42;;;;;;;0.00;0.00;;;19.30;73.00;;;;;;5051549;28;20024;-86
2021/06/20 01:35:10;;;;;;;3.00;0.10;;;19.30;73.10;;;;;;5051826;28;20108;-86
2021/06/20 01:37:36;;;;;;;0.00;0.00;;;19.20;73.10;;;;;;5045248;28;20389;-86
2021/06/20 01:40:05;;;;;;;0.30;0.08;;;19.20;73.00;;;;;;5046828;28;20385;-87
2021/06/20 01:42:31;;;;;;;0.93;0.25;;;19.20;73.10;;;;;;5029459;28;20040;-84
2021/06/20 01:44:57;;;;;;;0.45;0.00;;;19.20;73.10;;;;;;5048354;28;20033;-85
2021/06/20 01:47:24;;;;;;;0.10;0.00;;;19.10;73.10;;;;;;5032075;28;20033;-85
2021/06/20 01:49:51;;;;;;;0.15;0.10;;;19.20;73.20;;;;;;5052036;28;20404;-86
2021/06/20 01:52:21;;;;;;;0.00;0.00;;;19.20;73.20;;;;;;5051513;28;20044;-86
2021/06/20 01:54:50;;;;;;;0.88;0.00;;;19.20;73.20;;;;;;5050995;28;20059;-85
2021/06/20 01:57:27;;;;;;;0.00;0.00;;;19.20;73.20;;;;;;5029552;28;20032;-85
2021/06/20 01:59:54;;;;;;;0.03;0.00;;;19.10;73.20;;;;;;5031521;28;20037;-85
2021/06/20 02:02:20;;;;;;;0.05;0.05;;;19.10;73.10;;;;;;5047536;28;20091;-86
2021/06/20 02:04:46;;;;;;;0.30;0.15;;;19.10;73.20;;;;;;5047481;28;20410;-84
2021/06/20 02:07:12;;;;;;;2.90;0.63;;;19.20;73.20;;;;;;5050376;28;20217;-85
2021/06/20 02:09:38;;;;;;;0.43;0.20;;;19.10;73.10;;;;;;5049954;28;20020;-85
2021/06/20 02:12:05;;;;;;;3.35;0.10;;;19.10;73.10;;;;;;5050037;28;20036;-85
2021/06/20 02:14:35;;;;;;;0.10;0.10;;;19.10;73.30;;;;;;5050345;28;20040;-85
2021/06/20 02:17:30;;;;;;;4.90;0.32;;;19.10;73.30;;;;;;5047608;28;20259;-86
2021/06/20 02:19:58;;;;;;;0.00;0.00;;;19.10;73.30;;;;;;5052597;28;20525;-87
2021/06/20 02:22:28;;;;;;;0.10;0.00;;;19.10;73.20;;;;;;5049769;28;20040;-86
2021/06/20 02:24:54;;;;;;;1.33;0.10;;;19.10;73.30;;;;;;5049396;28;20478;-86
2021/06/20 02:27:20;;;;;;;0.00;0.00;;;19.10;73.20;;;;;;5048440;28;20037;-86
2021/06/20 02:29:49;;;;;;;0.43;0.10;;;19.10;73.30;;;;;;5049856;28;20022;-86
2021/06/20 02:32:15;;;;;;;1.52;0.13;;;19.10;73.30;;;;;;5051498;28;20033;-86
2021/06/20 02:34:42;;;;;;;0.47;0.30;;;19.00;73.30;;;;;;5044993;28;20029;-86
2021/06/20 02:37:08;;;;;;;0.70;0.00;;;19.10;73.40;;;;;;5047220;28;20509;-86
2021/06/20 02:39:35;;;;;;;0.10;0.00;;;19.10;73.50;;;;;;5048251;28;20037;-86
2021/06/20 02:42:01;;;;;;;0.20;0.00;;;19.00;73.50;;;;;;5033008;28;20021;-86
2021/06/20 02:44:27;;;;;;;0.10;0.00;;;19.00;73.60;;;;;;5053615;28;20041;-86
2021/06/20 02:46:54;;;;;;;0.25;0.13;;;18.90;73.60;;;;;;5052893;28;20048;-86
2021/06/20 02:49:20;;;;;;;0.47;0.10;;;18.90;73.60;;;;;;5054381;28;20072;-84
2021/06/20 02:51:46;;;;;;;0.08;0.00;;;18.90;73.70;;;;;;5054116;28;20040;-86
2021/06/20 02:54:12;;;;;;;0.03;0.00;;;18.80;73.70;;;;;;5053737;28;20029;-86
2021/06/20 02:56:39;;;;;;;0.20;0.00;;;18.80;73.90;;;;;;5052887;28;20462;-86
2021/06/20 02:59:05;;;;;;;0.70;0.52;;;18.70;73.90;;;;;;5036685;28;20048;-86
2021/06/20 03:01:31;;;;;;;0.10;0.00;;;18.80;74.00;;;;;;5034780;28;20033;-86
2021/06/20 03:03:57;;;;;;;0.22;0.10;;;18.70;74.00;;;;;;5036333;28;20025;-86
2021/06/20 03:06:23;;;;;;;1.02;0.10;;;18.70;74.00;;;;;;5031906;28;20041;-85
2021/06/20 03:08:49;;;;;;;0.32;0.00;;;18.70;73.90;;;;;;5033790;28;20032;-86
2021/06/20 03:11:16;;;;;;;0.55;0.10;;;18.70;73.90;;;;;;5051538;28;20486;-85
2021/06/20 03:13:42;;;;;;;0.63;0.20;;;18.70;74.00;;;;;;5049166;28;20029;-86
2021/06/20 03:16:08;;;;;;;0.25;0.00;;;18.70;74.00;;;;;;5035331;28;20044;-86
2021/06/20 03:18:34;;;;;;;0.20;0.00;;;18.60;74.00;;;;;;5053497;28;20032;-85
2021/06/20 03:21:00;;;;;;;0.10;0.10;;;18.60;74.00;;;;;;5053674;28;20017;-87
2021/06/20 03:23:26;;;;;;;0.25;0.00;;;18.60;74.00;;;;;;5052069;28;20021;-86
2021/06/20 03:25:53;;;;;;;0.00;0.00;;;18.60;74.00;;;;;;5052675;28;20052;-85
2021/06/20 03:28:19;;;;;;;0.28;0.17;;;18.60;74.10;;;;;;5051053;28;20037;-86
2021/06/20 03:30:45;;;;;;;0.90;0.10;;;18.50;74.10;;;;;;5051644;28;20025;-86
2021/06/20 03:33:11;;;;;;;0.90;0.10;;;18.50;74.20;;;;;;5053376;28;20025;-84
2021/06/20 03:35:37;;;;;;;0.00;0.00;;;18.50;74.20;;;;;;5053316;28;20036;-86
2021/06/20 03:38:03;;;;;;;0.10;0.00;;;18.50;74.20;;;;;;5052497;28;20041;-86
2021/06/20 03:40:29;;;;;;;0.65;0.00;;;18.50;74.20;;;;;;5053170;28;20385;-86
2021/06/20 03:42:55;;;;;;;0.00;0.00;;;18.50;74.30;;;;;;5053438;28;20037;-86
2021/06/20 03:45:21;;;;;;;0.10;0.00;;;18.50;74.20;;;;;;5052568;28;20041;-86
2021/06/20 03:47:47;;;;;;;0.28;0.00;;;18.50;74.30;;;;;;5051954;28;20029;-86
2021/06/20 03:50:13;;;;;;;10.05;0.43;;;18.50;74.30;;;;;;5051536;28;20059;-86
2021/06/20 03:52:39;;;;;;;3.08;0.15;;;18.50;74.30;;;;;;5052407;28;20033;-85
2021/06/20 03:55:07;;;;;;;0.05;0.00;;;18.50;74.30;;;;;;5051496;28;20044;-87
2021/06/20 03:57:33;;;;;;;0.10;0.10;;;18.50;74.30;;;;;;5052866;28;20060;-85
2021/06/20 03:59:59;;;;;;;0.38;0.20;;;18.50;74.30;;;;;;5050786;28;20049;-86
2021/06/20 04:02:25;;;;;;;0.00;0.00;;;18.50;74.30;;;;;;5051263;28;20891;-86
2021/06/20 04:04:51;;;;;;;2.33;0.10;;;18.50;74.30;;;;;;5052973;28;20051;-86
2021/06/20 04:07:17;;;;;;;0.00;0.00;;;18.50;74.30;;;;;;5051467;28;20474;-86
2021/06/20 04:09:44;;;;;;;0.00;0.00;;;18.50;74.30;;;;;;5051528;28;20029;-86
2021/06/20 04:12:11;;;;;;;0.10;0.00;;;18.50;74.30;;;;;;5051434;28;20052;-85
2021/06/20 04:14:38;;;;;;;0.85;0.15;;;18.40;74.30;;;;;;5052557;28;20026;-84
2021/06/20 04:17:05;;;;;;;0.47;0.10;;;18.40;74.40;;;;;;5051459;28;20032;-86
2021/06/20 04:19:31;;;;;;;0.10;0.00;;;18.40;74.40;;;;;;5047666;28;20406;-86
2021/06/20 04:21:57;;;;;;;4.78;0.28;;;18.40;74.40;;;;;;5046962;28;20021;-86
2021/06/20 04:24:23;;;;;;;0.00;0.00;;;18.40;74.40;;;;;;5046207;28;20395;-86
2021/06/20 04:26:50;;;;;;;0.00;0.00;;;18.40;74.40;;;;;;5032420;28;20029;-86
2021/06/20 04:29:16;;;;;;;0.00;0.00;;;18.40;74.40;;;;;;5032254;28;20048;-86
2021/06/20 04:31:42;;;;;;;0.20;0.10;;;18.40;74.40;;;;;;5047747;28;20482;-86
2021/06/20 04:34:09;;;;;;;0.50;0.20;;;18.40;74.40;;;;;;5050264;28;20513;-86
2021/06/20 04:36:35;;;;;;;0.00;0.00;;;18.50;74.40;;;;;;5034533;28;20021;-86
2021/06/20 04:39:01;;;;;;;0.10;0.00;;;18.50;74.40;;;;;;5030834;28;20057;-85
2021/06/20 04:41:28;;;;;;;0.35;0.10;;;18.60;74.40;;;;;;5051680;28;20029;-87
2021/06/20 04:46:36;;;;;;;0.00;0.00;;;18.70;74.90;;;;;;5051744;28;20033;-86
2021/06/20 04:49:09;;;;;;;1.15;0.65;;;18.60;74.20;;;;;;5051734;28;20032;-86
2021/06/20 04:51:39;;;;;;;0.45;0.10;;;18.70;74.20;;;;;;5051870;28;20489;-87
2021/06/20 04:54:09;;;;;;;0.10;0.00;;;18.60;74.20;;;;;;5050898;28;20509;-86
2021/06/20 04:56:35;;;;;;;0.00;0.00;;;18.60;74.20;;;;;;5035135;28;20029;-86
2021/06/20 04:59:01;;;;;;;0.00;0.00;;;18.60;74.20;;;;;;5048213;28;20048;-84
2021/06/20 05:01:27;;;;;;;0.00;0.00;;;18.60;74.20;;;;;;5045762;28;20033;-86
2021/06/20 05:03:55;;;;;;;0.40;0.32;;;18.70;74.30;;;;;;5047021;28;20032;-86
2021/06/20 05:06:22;;;;;;;0.22;0.00;;;18.70;74.10;;;;;;5047305;28;20025;-86
2021/06/20 05:08:48;;;;;;;0.30;0.00;;;18.80;74.10;;;;;;5048902;28;20029;-86
2021/06/20 05:11:14;;;;;;;0.03;0.00;;;18.80;74.10;;;;;;5049412;28;20036;-86
2021/06/20 05:13:40;;;;;;;0.10;0.00;;;18.90;74.00;;;;;;5052328;28;20390;-86
2021/06/20 05:16:07;;;;;;;0.00;0.00;;;18.80;74.00;;;;;;5051147;28;20033;-86
2021/06/20 05:18:33;;;;;;;0.10;0.00;;;18.80;74.10;;;;;;5030507;28;20051;-85
2021/06/20 05:20:59;;;;;;;0.00;0.00;;;18.70;74.20;;;;;;5047317;28;20028;-86
2021/06/20 05:23:25;;;;;;;1.15;0.20;;;18.70;74.20;;;;;;5050753;28;20052;-86
2021/06/20 05:25:52;;;;;;;0.10;0.00;;;18.70;74.30;;;;;;5051089;28;20036;-85
2021/06/20 05:28:18;;;;;;;0.95;0.32;;;18.60;74.40;;;;;;5050352;28;20025;-86
2021/06/20 05:30:47;;;;;;;0.88;0.22;;;18.60;74.40;;;;;;5051353;28;20401;-87
2021/06/20 05:33:14;;;;;;;1.42;0.25;;;18.70;74.40;;;;;;5033748;28;20045;-86
2021/06/20 05:35:40;;;;;;;0.30;0.03;;;18.70;74.40;;;;;;5017427;28;20064;-86
2021/06/20 05:38:06;;;;;;;0.15;0.10;;;18.70;74.40;;;;;;5050946;28;20029;-86
2021/06/20 05:40:36;;;;;;;0.10;0.00;;;18.70;74.40;;;;;;5048817;28;20045;-85
2021/06/20 05:43:02;;;;;;;0.10;0.10;;;18.70;74.40;;;;;;5049841;28;20052;-86
2021/06/20 05:45:29;;;;;;;0.00;0.00;;;18.70;75.10;;;;;;5050328;28;20037;-85
2021/06/20 05:47:55;;;;;;;0.10;0.00;;;18.70;74.40;;;;;;5051215;28;20036;-86
2021/06/20 05:50:21;;;;;;;0.20;0.00;;;18.70;74.40;;;;;;5053780;28;20036;-85
2021/06/20 05:52:47;;;;;;;0.32;0.10;;;18.70;74.40;;;;;;5055787;28;20029;-86
2021/06/20 05:55:13;;;;;;;4.85;0.28;;;18.60;74.40;;;;;;5055065;28;20068;-84
2021/06/20 05:57:39;;;;;;;0.30;0.00;;;18.70;74.60;;;;;;5055221;28;20043;-86
2021/06/20 06:00:06;;;;;;;0.57;0.15;;;18.70;74.50;;;;;;5053329;28;20524;-86
2021/06/20 06:02:33;;;;;;;0.32;0.10;;;18.70;74.50;;;;;;5053736;28;20034;-85
2021/06/20 06:04:59;;;;;;;0.10;0.00;;;18.70;74.50;;;;;;5054549;28;20037;-86
2021/06/20 06:07:25;;;;;;;0.08;0.00;;;18.70;74.40;;;;;;5016512;28;20036;-86
2021/06/20 06:09:51;;;;;;;0.00;0.00;;;18.70;74.30;;;;;;5050638;28;20032;-86
2021/06/20 06:12:23;;;;;;;1.02;0.15;;;18.80;74.30;;;;;;5049202;28;20025;-86
2021/06/20 06:14:53;;;;;;;1.35;0.10;;;18.80;74.30;;;;;;5053312;28;20089;-86
2021/06/20 06:17:22;;;;;;;0.47;0.00;;;18.90;74.20;;;;;;5052388;28;20048;-86
2021/06/20 06:19:48;;;;;;;1.25;0.10;;;18.90;74.20;;;;;;5053520;28;20037;-86
2021/06/20 06:22:17;;;;;;;1.15;0.00;;;19.00;74.20;;;;;;5053453;28;20036;-85
2021/06/20 06:24:44;;;;;;;0.00;0.00;;;19.00;74.10;;;;;;5053412;28;20036;-86
2021/06/20 06:27:14;;;;;;;0.63;0.17;;;19.00;74.10;;;;;;5053338;28;20033;-86
2021/06/20 06:29:40;;;;;;;0.15;0.15;;;18.90;74.10;;;;;;5053135;28;20048;-86
2021/06/20 06:32:07;;;;;;;0.10;0.03;;;19.00;74.30;;;;;;5053967;28;20037;-86
2021/06/20 06:34:33;;;;;;;0.00;0.00;;;18.90;74.30;;;;;;5053566;28;20043;-86
2021/06/20 06:37:00;;;;;;;0.70;0.32;;;18.90;74.40;;;;;;5036701;28;20021;-86
2021/06/20 06:39:27;;;;;;;0.03;0.00;;;19.00;74.40;;;;;;5036485;28;20049;-86
2021/06/20 06:41:53;;;;;;;0.22;0.10;;;19.00;74.30;;;;;;5054519;28;20044;-85
2021/06/20 06:44:20;;;;;;;0.30;0.10;;;19.10;74.10;;;;;;5018487;28;20041;-86
2021/06/20 06:46:46;;;;;;;0.08;0.03;;;19.20;74.00;;;;;;5050996;28;20402;-86
2021/06/20 06:49:12;;;;;;;0.32;0.05;;;19.30;74.00;;;;;;5053206;28;20032;-85
2021/06/20 06:51:38;;;;;;;0.20;0.03;;;19.30;73.90;;;;;;5054133;28;20036;-86
2021/06/20 06:54:05;;;;;;;0.22;0.00;;;19.30;73.80;;;;;;5054184;28;20036;-86
2021/06/20 06:56:31;;;;;;;0.30;0.00;;;19.30;73.80;;;;;;5052935;28;20029;-86
2021/06/20 06:58:57;;;;;;;8.50;0.20;;;19.40;73.80;;;;;;5052988;28;20040;-86
2021/06/20 07:01:23;;;;;;;0.28;0.08;;;19.40;73.70;;;;;;5053469;28;20032;-87
2021/06/20 07:03:49;;;;;;;0.75;0.13;;;19.50;73.70;;;;;;5053843;28;20029;-87
2021/06/20 07:06:15;;;;;;;0.00;0.00;;;19.50;73.70;;;;;;5053837;28;20402;-86
2021/06/20 07:08:42;;;;;;;0.20;0.00;;;19.60;73.70;;;;;;5053640;28;20028;-87
2021/06/20 07:11:08;;;;;;;0.00;0.00;;;19.60;73.60;;;;;;5054193;28;20398;-86
2021/06/20 07:13:34;;;;;;;0.13;0.00;;;19.70;73.50;;;;;;5052103;28;20037;-86
2021/06/20 07:16:00;;;;;;;0.22;0.13;;;19.70;73.40;;;;;;5035384;28;20037;-87
2021/06/20 07:18:26;;;;;;;0.32;0.17;;;19.70;73.40;;;;;;5052448;28;20029;-86
2021/06/20 07:20:53;;;;;;;0.03;0.00;;;19.80;73.50;;;;;;5035104;28;20398;-82
2021/06/20 07:23:19;;;;;;;0.40;0.00;;;19.80;73.30;;;;;;5034092;28;20029;-84
2021/06/20 07:25:45;;;;;;;0.10;0.10;;;20.00;73.20;;;;;;5054139;28;20032;-84
2021/06/20 07:28:11;;;;;;;0.70;0.10;;;20.10;73.00;;;;;;5053190;28;20130;-84
2021/06/20 07:30:37;;;;;;;0.82;0.20;;;20.20;72.80;;;;;;5053103;28;20500;-84
2021/06/20 07:33:03;;;;;;;0.10;0.00;;;20.30;72.60;;;;;;5052297;28;20037;-84
2021/06/20 07:35:29;;;;;;;0.13;0.00;;;20.50;72.40;;;;;;5052105;28;20029;-84
2021/06/20 07:37:55;;;;;;;0.00;0.00;;;20.60;72.20;;;;;;5052218;28;20037;-84
2021/06/20 07:40:22;;;;;;;0.00;0.00;;;20.70;72.20;;;;;;5031423;28;20045;-84
2021/06/20 07:42:48;;;;;;;0.00;0.00;;;20.80;72.10;;;;;;5030778;28;20025;-83
2021/06/20 07:45:15;;;;;;;0.00;0.00;;;20.90;71.90;;;;;;5048662;28;20048;-83
2021/06/20 07:47:41;;;;;;;0.35;0.15;;;21.10;71.50;;;;;;5051743;28;20394;-84
2021/06/20 07:50:09;;;;;;;0.05;0.00;;;21.30;71.20;;;;;;5032959;28;20454;-87
2021/06/20 07:52:36;;;;;;;0.20;0.05;;;21.40;70.90;;;;;;5051880;28;20024;-86
2021/06/20 07:55:03;;;;;;;2.40;0.20;;;21.50;70.70;;;;;;5030948;28;20032;-87
2021/06/20 07:57:29;;;;;;;0.00;0.00;;;21.50;70.60;;;;;;5046920;28;20048;-87
2021/06/20 07:59:55;;;;;;;0.28;0.00;;;21.50;70.70;;;;;;5033853;28;20482;-87
2021/06/20 08:02:21;;;;;;;0.00;0.00;;;21.40;70.70;;;;;;5049588;28;20037;-85
2021/06/20 08:04:47;;;;;;;0.13;0.10;;;21.30;71.10;;;;;;5047589;28;20458;-86
2021/06/20 08:07:15;;;;;;;0.03;0.00;;;21.10;71.30;;;;;;5047074;28;20037;-85
2021/06/20 08:09:42;;;;;;;0.13;0.00;;;21.10;71.60;;;;;;5048342;28;20029;-87
2021/06/20 08:12:08;;;;;;;0.00;0.00;;;21.00;71.60;;;;;;5030227;28;20029;-86
2021/06/20 08:14:35;;;;;;;0.00;0.00;;;21.00;71.80;;;;;;5035636;28;20195;-87
2021/06/20 08:17:01;;;;;;;5.00;0.45;;;20.90;71.90;;;;;;5047117;28;20037;-84
2021/06/20 08:19:27;;;;;;;0.35;0.17;;;20.90;72.00;;;;;;5030402;28;20501;-86
2021/06/20 08:21:54;;;;;;;0.22;0.10;;;20.80;72.00;;;;;;5014164;28;20037;-85
2021/06/20 08:24:20;;;;;;;0.00;0.00;;;20.70;72.10;;;;;;5046783;28;20037;-86
2021/06/20 08:26:46;;;;;;;0.10;0.00;;;20.60;72.20;;;;;;5034420;28;20016;-86
2021/06/20 08:29:13;;;;;;;0.17;0.08;;;20.50;72.40;;;;;;5052553;28;20028;-86
2021/06/20 08:31:39;;;;;;;0.22;0.20;;;20.50;72.60;;;;;;5031362;28;20037;-87
2021/06/20 08:34:08;;;;;;;0.10;0.00;;;20.40;72.60;;;;;;5046724;28;20051;-86
2021/06/20 08:36:35;;;;;;;0.00;0.00;;;20.40;72.70;;;;;;5047663;28;20024;-86
2021/06/20 08:39:01;;;;;;;0.20;0.00;;;20.40;72.70;;;;;;5034610;28;20044;-87
2021/06/20 08:41:28;;;;;;;2.10;0.32;;;20.40;72.60;;;;;;5034223;28;20029;-86
2021/06/20 08:43:54;;;;;;;0.00;0.00;;;20.40;72.50;;;;;;5047218;28;20040;-87
2021/06/20 08:46:20;;;;;;;0.20;0.00;;;20.50;72.60;;;;;;5045765;28;20045;-87
2021/06/20 08:48:46;;;;;;;0.38;0.20;;;20.50;72.60;;;;;;5031813;28;20463;-84
2021/06/20 08:51:12;;;;;;;0.20;0.00;;;20.40;72.50;;;;;;5030396;28;20045;-88
2021/06/20 08:53:38;;;;;;;0.00;0.00;;;20.50;72.60;;;;;;5034015;28;20032;-88
2021/06/20 08:56:05;;;;;;;0.22;0.17;;;20.50;72.60;;;;;;5047003;28;20044;-88
2021/06/20 08:58:33;;;;;;;1.27;0.10;;;20.50;72.60;;;;;;5052273;28;20143;-89
2021/06/20 09:01:01;;;;;;;0.00;0.00;;;20.50;72.70;;;;;;5050118;28;20041;-88
2021/06/20 09:03:41;;;;;;;0.10;0.00;;;20.50;72.70;;;;;;5050693;28;20029;-88
2021/06/20 09:06:17;;;;;;;0.38;0.03;;;20.50;72.70;;;;;;5050579;28;20021;-87
2021/06/20 09:08:53;;;;;;;0.20;0.00;;;20.60;72.80;;;;;;5035160;28;20026;-88
2021/06/20 09:11:33;;;;;;;0.80;0.43;;;20.50;72.80;;;;;;5015700;28;20041;-89
2021/06/20 09:14:06;;;;;;;0.10;0.00;;;20.50;72.80;;;;;;5050976;28;20033;-88
2021/06/20 09:16:33;;;;;;;0.63;0.10;;;20.50;72.80;;;;;;5050687;28;20033;-86
2021/06/20 09:18:59;;;;;;;0.22;0.10;;;20.40;73.10;;;;;;5050447;28;20016;-87
2021/06/20 09:21:26;;;;;;;0.10;0.00;;;20.20;73.50;;;;;;5051609;28;20482;-87
2021/06/20 09:23:53;;;;;;;0.00;0.00;;;20.00;73.80;;;;;;5050380;28;20028;-86
2021/06/20 09:26:40;;;;;;;0.03;0.00;;;19.90;74.10;;;;;;5051948;28;20025;-88
2021/06/20 09:29:08;;;;;;;0.13;0.00;;;19.80;74.40;;;;;;5050785;28;20025;-84
2021/06/20 09:31:48;;;;;;;0.10;0.00;;;19.80;74.70;;;;;;5049742;28;20029;-89
2021/06/20 09:34:14;;;;;;;0.22;0.00;;;19.80;74.90;;;;;;5050311;28;20033;-87
2021/06/20 09:36:40;;;;;;;0.00;0.00;;;19.90;74.80;;;;;;5050290;28;20036;-88
2021/06/20 09:39:24;;;;;;;1.45;0.25;;;20.00;74.60;;;;;;5045947;28;20091;-87
2021/06/20 09:42:03;;;;;;;0.60;0.03;;;20.10;74.50;;;;;;5019027;28;20029;-87
2021/06/20 09:44:33;;;;;;;2.25;0.17;;;20.20;74.30;;;;;;5033945;28;20032;-87
2021/06/20 09:46:59;;;;;;;0.45;0.17;;;20.30;74.30;;;;;;5049724;28;20395;-88
2021/06/20 09:49:29;;;;;;;0.60;0.20;;;20.40;74.30;;;;;;5050071;28;20505;-88
2021/06/20 09:51:55;;;;;;;0.35;0.10;;;20.60;74.20;;;;;;5033698;28;20025;-87
2021/06/20 09:54:32;;;;;;;0.52;0.10;;;20.80;74.10;;;;;;5049897;28;20024;-88
2021/06/20 09:56:58;;;;;;;0.70;0.00;;;21.00;73.80;;;;;;5033739;28;20033;-88
2021/06/20 09:59:32;;;;;;;0.40;0.10;;;21.30;73.40;;;;;;5033565;28;20037;-87
2021/06/20 10:02:14;;;;;;;0.40;0.20;;;21.60;72.80;;;;;;5051330;28;20052;-87
2021/06/20 10:04:40;;;;;;;0.30;0.20;;;21.80;72.30;;;;;;5030591;28;20041;-87
2021/06/20 10:07:07;;;;;;;1.27;0.38;;;22.00;71.80;;;;;;5042414;28;20215;-88
2021/06/20 10:09:35;;;;;;;1.35;0.32;;;22.00;71.50;;;;;;5028920;28;20029;-86
2021/06/20 10:12:01;;;;;;;0.13;0.05;;;22.10;71.50;;;;;;5046677;28;20032;-88
2021/06/20 10:14:27;;;;;;;0.28;0.17;;;22.10;71.40;;;;;;5049277;28;20044;-87
2021/06/20 10:16:58;;;;;;;0.10;0.00;;;22.10;71.10;;;;;;5045541;28;20032;-87
2021/06/20 10:19:26;;;;;;;0.00;0.00;;;22.00;71.30;;;;;;5029537;28;20410;-88
2021/06/20 10:22:08;;;;;;;0.00;0.00;;;22.10;71.10;;;;;;5029136;28;20037;-88
2021/06/20 10:24:47;;;;;;;0.88;0.40;;;22.20;71.00;;;;;;5052736;28;20021;-88
2021/06/20 10:27:32;;;;;;;0.00;0.00;;;22.30;70.70;;;;;;5052499;28;20036;-87
2021/06/20 10:30:00;;;;;;;0.00;0.00;;;22.50;70.20;;;;;;5033963;28;20026;-88
2021/06/20 10:32:27;;;;;;;0.10;0.05;;;22.60;69.70;;;;;;5035457;28;20037;-88
2021/06/20 10:34:58;;;;;;;0.00;0.00;;;22.80;70.10;;;;;;5037247;28;20033;-87
2021/06/20 10:37:26;;;;;;;0.00;0.00;;;22.90;68.80;;;;;;5052866;28;20021;-88
2021/06/20 10:39:54;;;;;;;0.17;0.00;;;23.00;68.50;;;;;;5054418;28;20029;-85
2021/06/20 10:42:30;;;;;;;0.63;0.10;;;23.10;68.50;;;;;;5032226;28;20034;-87
2021/06/20 10:44:56;;;;;;;0.80;0.13;;;23.20;68.00;;;;;;5035087;28;20040;-88
2021/06/20 10:47:30;;;;;;;0.00;0.00;;;23.40;67.90;;;;;;5034525;28;20037;-88
2021/06/20 10:50:07;;;;;;;0.22;0.00;;;23.60;67.30;;;;;;5049205;28;20032;-87
2021/06/20 10:52:33;;;;;;;0.25;0.17;;;23.80;67.00;;;;;;5048444;28;20028;-87
2021/06/20 10:55:13;;;;;;;0.05;0.00;;;23.90;66.40;;;;;;5049748;28;20032;-88
2021/06/20 10:57:53;;;;;;;0.00;0.00;;;24.00;66.10;;;;;;5049670;28;20028;-88
2021/06/20 11:00:34;;;;;;;0.00;0.00;;;24.10;65.90;;;;;;5031786;28;20045;-87
2021/06/20 11:03:29;;;;;;;0.70;0.00;;;24.10;65.40;;;;;;5052886;28;20025;-87
2021/06/20 11:06:14;;;;;;;1.95;0.15;;;24.10;65.20;;;;;;5036104;28;20041;-88
2021/06/20 11:08:42;;;;;;;8.57;0.25;;;24.00;65.00;;;;;;5037134;28;20025;-87
2021/06/20 11:11:32;;;;;;;0.00;0.00;;;23.90;65.20;;;;;;5033341;28;20462;-87
2021/06/20 11:13:58;;;;;;;0.40;0.10;;;24.10;65.00;;;;;;5058551;28;20048;-88
2021/06/20 11:16:34;;;;;;;0.17;0.00;;;24.20;64.40;;;;;;5053228;28;20033;-88
2021/06/20 11:19:08;;;;;;;0.00;0.00;;;24.20;64.30;;;;;;5037420;28;20025;-89
2021/06/20 11:21:47;;;;;;;0.10;0.00;;;24.10;64.20;;;;;;5052133;28;20033;-88
2021/06/20 11:24:15;;;;;;;0.10;0.00;;;24.10;64.30;;;;;;5052479;28;20021;-88
2021/06/20 11:27:14;;;;;;;0.65;0.17;;;24.10;64.30;;;;;;5051385;28;20060;-87
2021/06/20 11:29:47;;;;;;;0.50;0.22;;;24.00;64.30;;;;;;5016294;28;20048;-89
2021/06/20 11:32:17;;;;;;;4.18;0.08;;;23.90;64.30;;;;;;5033505;28;20034;-87
2021/06/20 11:34:44;;;;;;;4.65;0.28;;;23.90;64.30;;;;;;4998966;28;20038;-88
2021/06/20 11:37:17;;;;;;;0.00;0.00;;;23.90;64.10;;;;;;5012158;28;20025;-88
2021/06/20 11:39:47;;;;;;;0.65;0.10;;;24.10;63.80;;;;;;5009476;28;20049;-88
2021/06/20 11:42:31;;;;;;;1.20;0.20;;;24.40;63.20;;;;;;5023855;28;20399;-88
2021/06/20 11:45:11;;;;;;;0.08;0.00;;;24.60;62.70;;;;;;5017633;28;20029;-88
2021/06/20 11:47:42;;;;;;;0.00;0.00;;;24.80;62.20;;;;;;5012241;28;20577;-87
2021/06/20 11:50:09;;;;;;;0.00;0.00;;;24.90;61.50;;;;;;5018039;28;20036;-87
2021/06/20 11:52:35;;;;;;;0.03;0.00;;;25.00;61.10;;;;;;5018657;28;20045;-87
2021/06/20 11:55:19;;;;;;;0.08;0.00;;;25.10;61.10;;;;;;5014235;28;20037;-88
2021/06/20 11:57:45;;;;;;;1.50;0.00;;;25.10;60.90;;;;;;5009220;28;20037;-86
2021/06/20 12:00:13;;;;;;;0.10;0.00;;;25.00;60.70;;;;;;5001673;28;20045;-87
2021/06/20 12:02:40;;;;;;;0.10;0.00;;;24.90;61.00;;;;;;5013548;28;20030;-87
2021/06/20 12:05:06;;;;;;;0.20;0.05;;;24.80;60.90;;;;;;5031452;28;20060;-86
2021/06/20 12:07:32;;;;;;;1.25;0.40;;;24.70;61.20;;;;;;5047142;28;20037;-87
2021/06/20 12:09:59;;;;;;;1.40;0.30;;;24.60;61.10;;;;;;5030769;28;20386;-88
2021/06/20 12:12:25;;;;;;;0.10;0.00;;;24.60;61.30;;;;;;5030526;28;20033;-88
2021/06/20 12:14:59;;;;;;;0.38;0.00;;;24.50;61.30;;;;;;5049390;28;20032;-88
2021/06/20 12:17:25;;;;;;;0.15;0.00;;;24.40;61.40;;;;;;5049769;28;20033;-88
2021/06/20 12:19:51;;;;;;;0.98;0.10;;;24.30;61.50;;;;;;5051424;28;20029;-87
2021/06/20 12:22:17;;;;;;;0.00;0.00;;;24.40;61.70;;;;;;5050911;28;20510;-88
2021/06/20 12:24:58;;;;;;;1.25;0.40;;;24.50;61.50;;;;;;5034593;28;20025;-87
2021/06/20 12:27:34;;;;;;;0.10;0.00;;;24.80;61.20;;;;;;5051037;28;20040;-88
2021/06/20 12:30:24;;;;;;;0.00;0.00;;;25.00;60.40;;;;;;5051129;28;20036;-88
2021/06/20 12:32:51;;;;;;;0.00;0.00;;;25.20;60.00;;;;;;5036194;28;20529;-89
2021/06/20 12:35:27;;;;;;;0.57;0.00;;;25.30;59.60;;;;;;5034651;28;20500;-87
2021/06/20 12:37:54;;;;;;;0.40;0.08;;;25.40;59.50;;;;;;5036222;28;20021;-87
2021/06/20 12:40:24;;;;;;;0.52;0.13;;;25.40;59.50;;;;;;5039821;28;20041;-87
2021/06/20 12:42:51;;;;;;;0.10;0.00;;;25.30;59.50;;;;;;5046610;28;20021;-88
2021/06/20 12:45:23;;;;;;;0.10;0.05;;;25.20;59.60;;;;;;5033133;28;20036;-87
2021/06/20 12:47:49;;;;;;;0.20;0.10;;;25.10;59.80;;;;;;5034012;28;20020;-87
2021/06/20 12:50:24;;;;;;;0.22;0.00;;;25.00;59.90;;;;;;5051016;28;20048;-87
2021/06/20 12:52:50;;;;;;;0.85;0.10;;;24.80;60.00;;;;;;5049772;28;20025;-87
2021/06/20 12:55:17;;;;;;;0.40;0.10;;;24.60;60.10;;;;;;5050683;28;20037;-87
2021/06/20 12:57:50;;;;;;;0.10;0.00;;;24.50;60.50;;;;;;5014978;28;20052;-88